Terminal Aerodrome Forecast
Issued by NWS Bismarck, ND

Home | Current Version | Previous Version | Graphics & Text | Print | Product List | Glossary On
Versions: 1 2 3 4 5 6 7 8 9 10 11 12 13 14 15 16 17 18 19 20 21
000
FTUS43 KBIS 130528
TAFISN
TAF
KISN 130528Z 1306/1406 31026G36KT P6SM BKN100
     FM131500 31024G34KT P6SM OVC015
     FM131900 32024G34KT P6SM BKN035
     FM132200 32014KT P6SM BKN045=

USA.gov is the U.S. government's official web portal to all federal, state and local government web resources and services.